Time;durP1;ratioP1;P1;durP2;ratioP2;P2;SDS_P1;SDS_P2;PMS_P1;PMS_P2;Temp;Humidity;BMP_temperature;BMP_pressure;BME280_temperature;BME280_humidity;BME280_pressure;Samples;Min_cycle;Max_cycle;Signal;HPM_P1;HPM_P2
2022/08/12 00:43:08;;;;;;;;;;;;;;;;;;861518;23;952;-84
2022/08/12 00:43:29;;;;;;;;;;;28.70;34.90;;;;;;861407;23;885;-84
2022/08/12 00:43:49;;;;;;;;;;;28.70;34.90;;;;;;861309;23;832;-83
2022/08/12 00:44:11;;;;;;;;;;;28.70;34.90;;;;;;861438;23;813;-84
2022/08/12 00:44:32;;;;;;;;;;;;;;;;;;861407;23;785;-83
2022/08/12 00:44:53;;;;;;;;;;;28.70;34.90;;;;;;861323;23;817;-85
2022/08/12 00:45:14;;;;;;;;;;;28.70;34.90;;;;;;861456;23;821;-83
2022/08/12 00:46:29;;;;;;;;;;;28.70;34.90;;;;;;861274;23;900;-84
2022/08/12 00:46:31;;;;;;;;;;;;;;;;;;861340;23;891;-84
2022/08/12 00:46:57;;;;;;;;;;;28.70;35.00;;;;;;861361;23;898;-84
2022/08/12 00:47:21;;;;;;;;;;;;;;;;;;861388;23;865;-83
2022/08/12 00:47:42;;;;;;;;;;;28.70;35.30;;;;;;861426;23;817;-83
2022/08/12 00:48:03;;;;;;;;;;;28.70;35.30;;;;;;861274;23;854;-84
2022/08/12 00:48:25;;;;;;;;;;;28.70;35.40;;;;;;861177;23;828;-84
2022/08/12 00:48:46;;;;;;;;;;;28.70;35.50;;;;;;856893;23;897;-84
2022/08/12 00:49:07;;;;;;;;;;;;;;;;;;857050;23;797;-84
2022/08/12 00:49:29;;;;;;;;;;;28.60;35.70;;;;;;856859;23;1187;-85
2022/08/12 00:49:50;;;;;;;;;;;28.70;35.90;;;;;;851603;23;1732;-84
2022/08/12 00:50:17;;;;;;;;;;;28.70;36.00;;;;;;852851;23;818;-84
2022/08/12 00:50:37;;;;;;;;;;;;;;;;;;852720;23;885;-84
2022/08/12 00:50:59;;;;;;;;;;;28.70;36.00;;;;;;852910;23;829;-85
2022/08/12 00:51:20;;;;;;;;;;;28.70;36.00;;;;;;854999;23;845;-84
2022/08/12 00:52:21;;;;;;;;;;;28.60;36.10;;;;;;861424;23;612;-84
2022/08/12 00:52:42;;;;;;;;;;;28.60;36.20;;;;;;861252;23;944;-84
2022/08/12 00:53:04;;;;;;;;;;;28.60;36.10;;;;;;861456;23;793;-83
2022/08/12 00:53:25;;;;;;;;;;;;;;;;;;861286;23;819;-83
2022/08/12 00:53:46;;;;;;;;;;;;;;;;;;861266;23;889;-83
2022/08/12 00:54:06;;;;;;;;;;;28.60;36.30;;;;;;861097;23;936;-82
2022/08/12 00:54:27;;;;;;;;;;;28.60;36.30;;;;;;860681;23;978;-82
2022/08/12 00:54:48;;;;;;;;;;;;;;;;;;861049;23;1242;-84
2022/08/12 00:55:09;;;;;;;;;;;28.60;36.30;;;;;;861270;23;826;-84
2022/08/12 00:55:30;;;;;;;;;;;28.60;36.30;;;;;;861375;23;850;-82
2022/08/12 00:55:53;;;;;;;;;;;28.60;36.20;;;;;;861427;23;861;-82
2022/08/12 00:56:13;;;;;;;;;;;28.60;36.30;;;;;;855853;23;880;-83
2022/08/12 00:56:35;;;;;;;;;;;28.60;36.20;;;;;;856960;23;821;-83
2022/08/12 00:56:56;;;;;;;;;;;;;;;;;;856675;23;1545;-83
2022/08/12 00:57:20;;;;;;;;;;;28.60;36.30;;;;;;857027;23;904;-83
2022/08/12 00:57:42;;;;;;;;;;;28.60;36.40;;;;;;856726;23;2152;-82
2022/08/12 00:58:04;;;;;;;;;;;28.60;36.40;;;;;;857023;23;888;-82
2022/08/12 00:58:27;;;;;;;;;;;28.60;36.30;;;;;;857036;23;777;-83
2022/08/12 00:58:49;;;;;;;;;;;;;;;;;;859257;23;979;-84
2022/08/12 00:59:10;;;;;;;;;;;28.60;36.40;;;;;;861444;23;865;-84
2022/08/12 00:59:31;;;;;;;;;;;;;;;;;;861289;23;866;-83
2022/08/12 00:59:53;;;;;;;;;;;28.60;36.30;;;;;;861440;23;801;-84
2022/08/12 01:00:20;;;;;;;;;;;28.60;36.30;;;;;;861201;23;917;-84
2022/08/12 01:00:41;;;;;;;;;;;28.60;36.30;;;;;;861177;23;857;-85
2022/08/12 01:01:06;;;;;;;;;;;28.60;36.40;;;;;;861340;23;821;-84
2022/08/12 01:01:27;;;;;;;;;;;28.60;36.40;;;;;;861368;23;848;-83
2022/08/12 01:01:48;;;;;;;;;;;;;;;;;;861342;23;825;-85
2022/08/12 01:02:09;;;;;;;;;;;28.60;36.50;;;;;;856777;23;1026;-84
2022/08/12 01:02:31;;;;;;;;;;;28.60;36.50;;;;;;856998;23;750;-84
2022/08/12 01:02:56;;;;;;;;;;;28.60;36.50;;;;;;856979;23;825;-84
2022/08/12 01:03:19;;;;;;;;;;;28.60;36.60;;;;;;856995;23;844;-83
2022/08/12 01:11:33;;;;;;;;;;;28.50;36.70;;;;;;861431;23;599;-84
2022/08/12 01:11:54;;;;;;;;;;;28.50;36.80;;;;;;861433;23;766;-84
2022/08/12 01:12:16;;;;;;;;;;;28.50;36.70;;;;;;861395;23;901;-84
2022/08/12 01:12:37;;;;;;;;;;;28.50;36.80;;;;;;861376;23;798;-84
2022/08/12 01:12:58;;;;;;;;;;;;;;;;;;856857;23;1163;-86
2022/08/12 01:13:19;;;;;;;;;;;28.50;36.70;;;;;;856961;23;781;-85
2022/08/12 01:13:46;;;;;;;;;;;28.50;36.70;;;;;;852589;23;1382;-84
2022/08/12 01:14:06;;;;;;;;;;;28.50;36.70;;;;;;852723;23;821;-84
2022/08/12 01:14:27;;;;;;;;;;;28.50;36.70;;;;;;852867;23;785;-84
2022/08/12 01:14:48;;;;;;;;;;;28.50;36.70;;;;;;854694;23;948;-84
2022/08/12 01:15:10;;;;;;;;;;;28.50;36.70;;;;;;856495;23;1391;-85
2022/08/12 01:15:31;;;;;;;;;;;28.50;36.60;;;;;;859185;23;869;-84
2022/08/12 01:15:53;;;;;;;;;;;28.50;36.60;;;;;;861349;23;844;-85
2022/08/12 01:16:15;;;;;;;;;;;28.50;36.70;;;;;;861327;23;837;-84
2022/08/12 01:16:35;;;;;;;;;;;28.50;36.70;;;;;;861431;23;893;-84
2022/08/12 01:16:57;;;;;;;;;;;28.50;36.70;;;;;;861192;23;967;-85
2022/08/12 01:17:18;;;;;;;;;;;;;;;;;;861426;23;840;-85
2022/08/12 01:17:43;;;;;;;;;;;28.50;36.70;;;;;;861396;23;813;-84
2022/08/12 01:18:04;;;;;;;;;;;28.50;36.60;;;;;;861346;23;816;-84
2022/08/12 01:18:29;;;;;;;;;;;28.50;36.60;;;;;;861319;23;813;-84
2022/08/12 01:18:50;;;;;;;;;;;;;;;;;;860028;23;880;-84
2022/08/12 01:19:11;;;;;;;;;;;28.50;36.60;;;;;;860260;23;921;-83
2022/08/12 01:19:32;;;;;;;;;;;28.50;36.60;;;;;;861208;23;805;-83
2022/08/12 01:19:54;;;;;;;;;;;28.50;36.60;;;;;;861365;23;858;-84
2022/08/12 01:20:31;;;;;;;;;;;28.50;36.60;;;;;;856850;23;1110;-83
2022/08/12 01:20:52;;;;;;;;;;;;;;;;;;856964;23;773;-84
2022/08/12 01:21:38;;;;;;;;;;;28.50;36.70;;;;;;857009;23;781;-85
2022/08/12 01:22:04;;;;;;;;;;;28.50;36.70;;;;;;840828;23;1406;-85
2022/08/12 01:22:30;;;;;;;;;;;28.50;36.70;;;;;;844519;23;739;-84
2022/08/12 01:23:09;;;;;;;;;;;28.40;36.60;;;;;;853807;23;1614;-84
2022/08/12 01:23:29;;;;;;;;;;;28.40;36.60;;;;;;856757;23;781;-83
2022/08/12 01:23:59;;;;;;;;;;;28.50;36.60;;;;;;852773;23;774;-84
2022/08/12 01:24:35;;;;;;;;;;;28.50;36.60;;;;;;852849;23;758;-84
2022/08/12 01:24:56;;;;;;;;;;;;;;;;;;856979;23;809;-84
2022/08/12 01:25:17;;;;;;;;;;;28.50;36.70;;;;;;856980;23;825;-84
2022/08/12 01:25:38;;;;;;;;;;;;;;;;;;858371;23;790;-85
2022/08/12 01:26:00;;;;;;;;;;;28.50;36.60;;;;;;856607;23;1133;-85
2022/08/12 01:26:24;;;;;;;;;;;28.50;36.70;;;;;;856995;23;869;-85
2022/08/12 01:26:46;;;;;;;;;;;28.50;36.70;;;;;;856843;23;900;-84
2022/08/12 01:27:08;;;;;;;;;;;28.50;36.70;;;;;;856883;23;840;-84
2022/08/12 01:27:32;;;;;;;;;;;28.50;36.80;;;;;;856935;23;1060;-84
2022/08/12 01:27:53;;;;;;;;;;;28.50;36.80;;;;;;859729;23;790;-85
2022/08/12 01:28:15;;;;;;;;;;;28.50;36.80;;;;;;856788;23;1292;-84
2022/08/12 01:28:37;;;;;;;;;;;28.50;36.70;;;;;;856954;23;821;-84
2022/08/12 01:28:58;;;;;;;;;;;;;;;;;;856806;23;909;-85
2022/08/12 01:29:19;;;;;;;;;;;;;;;;;;856986;23;951;-85
2022/08/12 01:29:43;;;;;;;;;;;28.50;36.80;;;;;;856779;23;1900;-85
2022/08/12 01:30:06;;;;;;;;;;;28.50;36.80;;;;;;854509;23;1092;-84
2022/08/12 01:30:28;;;;;;;;;;;28.50;36.80;;;;;;856841;23;1149;-84
2022/08/12 01:30:49;;;;;;;;;;;28.50;36.80;;;;;;856922;23;938;-84
2022/08/12 01:31:10;;;;;;;;;;;28.50;36.70;;;;;;856587;23;980;-84
2022/08/12 01:31:34;;;;;;;;;;;28.50;36.80;;;;;;856960;23;762;-85
2022/08/12 01:31:55;;;;;;;;;;;;;;;;;;858862;23;824;-85
2022/08/12 01:32:17;;;;;;;;;;;28.50;36.80;;;;;;861085;23;810;-84
2022/08/12 01:32:38;;;;;;;;;;;;;;;;;;861078;23;1303;-86
2022/08/12 01:33:01;;;;;;;;;;;28.40;36.70;;;;;;861114;23;939;-85
2022/08/12 01:33:24;;;;;;;;;;;28.50;36.80;;;;;;861249;23;821;-85
2022/08/12 01:34:01;;;;;;;;;;;28.40;36.80;;;;;;861155;23;912;-84
2022/08/12 01:34:24;;;;;;;;;;;28.40;36.80;;;;;;861373;23;786;-84
2022/08/12 01:34:50;;;;;;;;;;;28.40;36.70;;;;;;861411;23;809;-84
2022/08/12 01:35:12;;;;;;;;;;;28.40;36.70;;;;;;856662;23;1084;-85
2022/08/12 01:35:33;;;;;;;;;;;28.40;36.70;;;;;;856958;23;766;-84
2022/08/12 01:35:59;;;;;;;;;;;28.40;36.80;;;;;;852928;23;1410;-85
2022/08/12 01:36:21;;;;;;;;;;;28.40;36.80;;;;;;852764;23;826;-85
2022/08/12 01:36:47;;;;;;;;;;;28.40;36.80;;;;;;852876;23;840;-84
2022/08/12 01:37:08;;;;;;;;;;;;;;;;;;856198;23;900;-86
2022/08/12 01:37:29;;;;;;;;;;;28.50;36.90;;;;;;856949;23;813;-86
2022/08/12 01:37:52;;;;;;;;;;;28.40;36.80;;;;;;860232;23;884;-85
2022/08/12 01:38:14;;;;;;;;;;;28.40;36.80;;;;;;861363;23;786;-85
2022/08/12 01:38:36;;;;;;;;;;;28.40;36.80;;;;;;856879;23;1458;-85
2022/08/12 01:38:58;;;;;;;;;;;28.40;36.90;;;;;;856908;23;841;-86
2022/08/12 01:39:20;;;;;;;;;;;28.40;36.80;;;;;;852392;23;1491;-86
2022/08/12 01:39:44;;;;;;;;;;;28.40;36.80;;;;;;852814;23;877;-85
2022/08/12 01:40:08;;;;;;;;;;;28.50;36.90;;;;;;852815;23;838;-85
2022/08/12 01:40:30;;;;;;;;;;;28.40;36.80;;;;;;851285;23;833;-85
2022/08/12 01:40:51;;;;;;;;;;;28.40;36.80;;;;;;852628;23;1078;-84
2022/08/12 01:41:12;;;;;;;;;;;;;;;;;;852692;23;951;-85
2022/08/12 01:41:37;;;;;;;;;;;28.40;36.80;;;;;;848499;23;1331;-85
2022/08/12 01:41:58;;;;;;;;;;;;;;;;;;848709;23;770;-85
2022/08/12 01:42:19;;;;;;;;;;;28.40;36.90;;;;;;850565;23;821;-85
2022/08/12 01:42:47;;;;;;;;;;;28.40;36.90;;;;;;854378;23;822;-85
2022/08/12 01:43:12;;;;;;;;;;;28.40;36.90;;;;;;856950;23;793;-85
2022/08/12 01:43:33;;;;;;;;;;;28.40;36.90;;;;;;860841;23;790;-85
2022/08/12 01:43:54;;;;;;;;;;;28.40;36.90;;;;;;861388;23;853;-84
2022/08/12 01:44:15;;;;;;;;;;;28.40;36.90;;;;;;861362;23;908;-85
2022/08/12 01:44:37;;;;;;;;;;;28.40;36.90;;;;;;856774;23;1370;-85
2022/08/12 01:44:58;;;;;;;;;;;;;;;;;;856992;23;789;-85
2022/08/12 01:45:23;;;;;;;;;;;28.40;36.90;;;;;;857031;23;833;-85
2022/08/12 01:45:58;;;;;;;;;;;28.50;37.20;;;;;;852681;23;1403;-85
2022/08/12 01:46:21;;;;;;;;;;;28.40;37.50;;;;;;853087;23;861;-85
2022/08/12 01:47:02;;;;;;;;;;;28.40;37.50;;;;;;856921;23;774;-86
2022/08/12 01:47:41;;;;;;;;;;;28.50;37.40;;;;;;856888;23;818;-85
2022/08/12 01:48:02;;;;;;;;;;;28.40;37.30;;;;;;861181;23;773;-84
2022/08/12 01:48:28;;;;;;;;;;;28.40;37.30;;;;;;861265;23;777;-84
2022/08/12 01:48:52;;;;;;;;;;;28.40;37.30;;;;;;861279;23;833;-86
2022/08/12 01:49:30;;;;;;;;;;;28.50;37.30;;;;;;861343;23;778;-85
2022/08/12 01:49:51;;;;;;;;;;;28.50;37.30;;;;;;861204;23;1881;-85
2022/08/12 01:50:15;;;;;;;;;;;28.40;37.10;;;;;;861312;23;881;-85
2022/08/12 01:50:36;;;;;;;;;;;;;;;;;;861310;23;797;-84
2022/08/12 01:51:18;;;;;;;;;;;28.40;37.10;;;;;;861310;23;860;-85
2022/08/12 01:51:43;;;;;;;;;;;28.50;37.00;;;;;;861116;23;865;-85
2022/08/12 01:52:05;;;;;;;;;;;28.50;37.00;;;;;;861370;23;928;-85
2022/08/12 01:52:44;;;;;;;;;;;28.50;36.90;;;;;;861144;23;817;-85
2022/08/12 01:53:09;;;;;;;;;;;28.50;36.90;;;;;;861120;23;813;-86
2022/08/12 01:53:43;;;;;;;;;;;28.50;36.80;;;;;;861331;23;870;-86
2022/08/12 01:54:05;;;;;;;;;;;28.50;36.80;;;;;;861319;23;829;-86
2022/08/12 01:54:26;;;;;;;;;;;28.50;36.80;;;;;;856713;23;1307;-85
2022/08/12 01:54:48;;;;;;;;;;;28.50;36.70;;;;;;856763;23;1150;-85
2022/08/12 01:55:10;;;;;;;;;;;28.50;36.70;;;;;;856910;23;808;-85
2022/08/12 01:55:33;;;;;;;;;;;28.50;36.60;;;;;;856820;23;841;-84
2022/08/12 01:55:54;;;;;;;;;;;28.50;36.60;;;;;;857032;23;817;-84
2022/08/12 01:56:15;;;;;;;;;;;;;;;;;;854395;23;1184;-85
2022/08/12 01:56:42;;;;;;;;;;;28.50;36.60;;;;;;856873;23;825;-85
2022/08/12 01:57:10;;;;;;;;;;;28.50;36.50;;;;;;856905;23;821;-85
2022/08/12 01:57:38;;;;;;;;;;;28.50;36.60;;;;;;856651;23;1482;-84
2022/08/12 01:58:17;;;;;;;;;;;28.50;36.60;;;;;;853184;23;1199;-84
2022/08/12 01:59:48;;;;;;;;;;;28.50;36.60;;;;;;856938;23;605;-85
2022/08/12 02:00:12;;;;;;;;;;;28.50;36.50;;;;;;852519;23;1184;-85
2022/08/12 02:00:47;;;;;;;;;;;;;;;;;;852656;23;953;-86
2022/08/12 02:01:08;;;;;;;;;;;;;;;;;;852871;23;1103;-85
2022/08/12 02:01:33;;;;;;;;;;;28.60;36.60;;;;;;848385;23;1266;-86
2022/08/12 02:01:55;;;;;;;;;;;28.50;36.60;;;;;;848750;23;842;-87
2022/08/12 02:02:36;;;;;;;;;;;28.60;36.60;;;;;;848578;23;859;-86
2022/08/12 02:03:06;;;;;;;;;;;28.60;36.70;;;;;;836453;23;1224;-86
2022/08/12 02:11:13;;;;;;;;;;;28.60;36.60;;;;;;852645;23;597;-85
2022/08/12 02:11:34;;;;;;;;;;;;;;;;;;852581;23;762;-86
2022/08/12 02:12:00;;;;;;;;;;;28.60;36.50;;;;;;851974;23;1137;-85
2022/08/12 02:12:31;;;;;;;;;;;28.60;36.50;;;;;;852686;23;1015;-86
2022/08/12 02:13:30;;;;;;;;;;;28.60;36.60;;;;;;852657;23;774;-86
2022/08/12 02:14:10;;;;;;;;;;;28.60;36.50;;;;;;836409;23;799;-85
2022/08/12 02:14:40;;;;;;;;;;;28.60;36.50;;;;;;836575;23;783;-87
2022/08/12 02:15:21;;;;;;;;;;;28.60;36.40;;;;;;836435;23;795;-86
2022/08/12 02:15:52;;;;;;;;;;;28.60;36.40;;;;;;836540;23;754;-86
2022/08/12 02:16:17;;;;;;;;;;;28.60;36.40;;;;;;832459;23;1126;-86
2022/08/12 02:16:38;;;;;;;;;;;;;;;;;;832546;23;783;-88
2022/08/12 02:17:21;;;;;;;;;;;28.60;36.40;;;;;;832589;23;889;-88
2022/08/12 02:17:50;;;;;;;;;;;28.60;36.40;;;;;;832579;23;829;-87
2022/08/12 02:18:24;;;;;;;;;;;28.60;36.40;;;;;;835728;23;1017;-87
2022/08/12 02:18:45;;;;;;;;;;;;;;;;;;836493;23;961;-85
2022/08/12 02:19:21;;;;;;;;;;;28.60;36.30;;;;;;836455;23;853;-85
2022/08/12 02:19:42;;;;;;;;;;;;;;;;;;836364;23;938;-87
2022/08/12 02:20:03;;;;;;;;;;;;;;;;;;836323;23;818;-87
2022/08/12 02:20:23;;;;;;;;;;;28.60;36.30;;;;;;832440;23;1333;-85
2022/08/12 02:20:46;;;;;;;;;;;28.60;36.30;;;;;;832552;23;854;-85
2022/08/12 02:21:07;;;;;;;;;;;;;;;;;;832368;23;1356;-85
2022/08/12 02:21:40;;;;;;;;;;;28.60;36.30;;;;;;832487;23;865;-85
2022/08/12 02:22:16;;;;;;;;;;;28.60;36.40;;;;;;832490;23;767;-85
2022/08/12 02:22:43;;;;;;;;;;;28.60;36.30;;;;;;836392;23;799;-85
2022/08/12 02:23:06;;;;;;;;;;;28.60;36.30;;;;;;836491;23;841;-87
2022/08/12 02:23:27;;;;;;;;;;;28.70;36.40;;;;;;836371;23;920;-84
2022/08/12 02:23:48;;;;;;;;;;;;;;;;;;836357;23;879;-85
2022/08/12 02:24:12;;;;;;;;;;;28.60;36.40;;;;;;836460;23;794;-85
2022/08/12 02:24:36;;;;;;;;;;;28.60;36.40;;;;;;836170;23;1139;-84
2022/08/12 02:25:02;;;;;;;;;;;28.60;36.30;;;;;;836412;23;793;-84
2022/08/12 02:25:32;;;;;;;;;;;28.60;36.20;;;;;;836378;23;1015;-84
2022/08/12 02:26:02;;;;;;;;;;;28.60;36.20;;;;;;836457;23;787;-84
2022/08/12 02:26:23;;;;;;;;;;;28.60;36.20;;;;;;836459;23;1117;-84
2022/08/12 02:26:45;;;;;;;;;;;28.60;36.20;;;;;;836481;23;838;-85
2022/08/12 02:27:07;;;;;;;;;;;28.60;36.10;;;;;;836380;23;869;-84
2022/08/12 02:27:28;;;;;;;;;;;;;;;;;;836527;23;909;-84
2022/08/12 02:27:50;;;;;;;;;;;28.60;36.10;;;;;;832406;23;1247;-84
2022/08/12 02:28:11;;;;;;;;;;;28.70;36.10;;;;;;832526;23;724;-85
2022/08/12 02:28:32;;;;;;;;;;;28.70;36.10;;;;;;832559;23;870;-84
2022/08/12 02:28:53;;;;;;;;;;;28.60;36.00;;;;;;832543;23;834;-84
2022/08/12 02:29:14;;;;;;;;;;;28.60;35.90;;;;;;828485;23;1374;-84
2022/08/12 02:29:35;;;;;;;;;;;28.70;36.00;;;;;;825546;23;1893;-84
2022/08/12 02:29:57;;;;;;;;;;;28.60;35.90;;;;;;828582;23;807;-84
2022/08/12 02:30:20;;;;;;;;;;;;;;;;;;828601;23;799;-84
2022/08/12 02:30:41;;;;;;;;;;;28.70;36.00;;;;;;828644;23;795;-84
2022/08/12 02:31:03;;;;;;;;;;;28.60;35.90;;;;;;829944;23;822;-84
2022/08/12 02:31:25;;;;;;;;;;;28.60;35.90;;;;;;834000;23;883;-84
2022/08/12 02:31:47;;;;;;;;;;;28.60;35.90;;;;;;836307;23;966;-84
2022/08/12 02:32:08;;;;;;;;;;;28.60;35.90;;;;;;836436;23;843;-85
2022/08/12 02:32:34;;;;;;;;;;;28.60;36.00;;;;;;836627;23;786;-84
2022/08/12 02:32:55;;;;;;;;;;;;;;;;;;836171;23;939;-83
2022/08/12 02:33:16;;;;;;;;;;;28.60;36.30;;;;;;836321;23;887;-84
2022/08/12 02:33:37;;;;;;;;;;;;;;;;;;836393;23;909;-84
2022/08/12 02:33:58;;;;;;;;;;;28.60;36.50;;;;;;836421;23;856;-84
2022/08/12 02:34:21;;;;;;;;;;;28.60;36.50;;;;;;836473;23;894;-84
2022/08/12 02:34:43;;;;;;;;;;;28.60;36.70;;;;;;836558;23;818;-83
2022/08/12 02:35:05;;;;;;;;;;;28.60;36.80;;;;;;832186;23;1335;-83
2022/08/12 02:35:27;;;;;;;;;;;28.60;36.90;;;;;;832484;23;943;-83
2022/08/12 02:35:50;;;;;;;;;;;;;;;;;;832553;23;966;-84
2022/08/12 02:36:11;;;;;;;;;;;28.60;36.90;;;;;;832465;23;830;-84
2022/08/12 02:36:32;;;;;;;;;;;28.60;36.90;;;;;;832457;23;867;-84
2022/08/12 02:36:54;;;;;;;;;;;28.60;36.90;;;;;;834036;23;888;-84
2022/08/12 02:37:16;;;;;;;;;;;28.60;37.00;;;;;;836424;23;768;-84
2022/08/12 02:37:38;;;;;;;;;;;28.60;37.10;;;;;;836413;23;907;-84
2022/08/12 02:37:59;;;;;;;;;;;28.50;37.00;;;;;;836728;23;1040;-84
2022/08/12 02:38:20;;;;;;;;;;;28.60;37.00;;;;;;840423;23;803;-84
2022/08/12 02:38:41;;;;;;;;;;;28.60;36.90;;;;;;840446;23;843;-84
2022/08/12 02:39:02;;;;;;;;;;;;;;;;;;840263;23;1023;-84
2022/08/12 02:39:24;;;;;;;;;;;28.60;37.00;;;;;;840278;23;882;-85
2022/08/12 02:39:48;;;;;;;;;;;28.60;36.90;;;;;;840488;23;783;-84
2022/08/12 02:40:10;;;;;;;;;;;28.50;36.80;;;;;;840105;23;835;-84
2022/08/12 02:40:33;;;;;;;;;;;28.60;36.60;;;;;;840389;23;939;-84
2022/08/12 02:40:55;;;;;;;;;;;28.60;36.80;;;;;;840440;23;790;-84
2022/08/12 02:41:17;;;;;;;;;;;28.60;36.60;;;;;;840428;23;846;-84
2022/08/12 02:41:38;;;;;;;;;;;;;;;;;;836360;23;771;-85
2022/08/12 02:42:02;;;;;;;;;;;28.60;36.90;;;;;;836524;23;806;-84
2022/08/12 02:42:23;;;;;;;;;;;28.60;36.90;;;;;;836472;23;731;-84
2022/08/12 02:42:52;;;;;;;;;;;28.60;37.00;;;;;;836515;23;806;-84
2022/08/12 02:43:13;;;;;;;;;;;;;;;;;;836355;23;899;-84
2022/08/12 02:44:03;;;;;;;;;;;28.50;36.60;;;;;;838873;23;952;-84
2022/08/12 02:44:25;;;;;;;;;;;28.50;36.80;;;;;;824382;24;1218;-83
2022/08/12 02:44:49;;;;;;;;;;;28.50;36.80;;;;;;831102;23;1439;-84
2022/08/12 02:45:10;;;;;;;;;;;28.50;36.70;;;;;;836442;23;850;-83
2022/08/12 02:45:32;;;;;;;;;;;;;;;;;;836395;23;751;-84
2022/08/12 02:45:59;;;;;;;;;;;28.50;36.70;;;;;;858554;23;1238;-84
2022/08/12 02:46:26;;;;;;;;;;;28.50;36.70;;;;;;856654;23;893;-83
2022/08/12 02:46:48;;;;;;;;;;;28.50;36.80;;;;;;856914;23;789;-83
2022/08/12 02:47:09;;;;;;;;;;;;;;;;;;852412;23;1156;-82
2022/08/12 02:47:32;;;;;;;;;;;28.50;36.80;;;;;;852745;23;850;-82
2022/08/12 02:47:53;;;;;;;;;;;28.50;36.70;;;;;;852834;23;790;-83
2022/08/12 02:48:17;;;;;;;;;;;28.50;36.60;;;;;;855522;23;762;-83
2022/08/12 02:48:56;;;;;;;;;;;28.50;36.80;;;;;;852718;23;868;-84
2022/08/12 02:49:30;;;;;;;;;;;28.50;36.80;;;;;;856846;23;739;-84
2022/08/12 02:49:54;;;;;;;;;;;28.50;36.80;;;;;;856738;23;1924;-85
2022/08/12 02:50:16;;;;;;;;;;;28.50;36.90;;;;;;852574;23;1240;-84
2022/08/12 02:50:41;;;;;;;;;;;28.50;36.80;;;;;;856299;23;829;-84
2022/08/12 02:51:04;;;;;;;;;;;28.50;36.90;;;;;;856833;23;782;-84
2022/08/12 02:51:33;;;;;;;;;;;28.50;36.80;;;;;;856842;23;865;-84
2022/08/12 02:51:53;;;;;;;;;;;28.50;36.80;;;;;;856895;23;758;-84
2022/08/12 02:52:15;;;;;;;;;;;28.50;36.70;;;;;;860971;23;825;-84
2022/08/12 02:52:36;;;;;;;;;;;28.50;36.80;;;;;;861214;23;743;-84
2022/08/12 02:52:58;;;;;;;;;;;28.40;36.70;;;;;;861284;23;879;-84
2022/08/12 02:53:18;;;;;;;;;;;28.50;36.60;;;;;;861318;23;817;-85
2022/08/12 02:53:39;;;;;;;;;;;28.50;36.70;;;;;;861331;23;790;-85
2022/08/12 02:54:02;;;;;;;;;;;28.50;36.60;;;;;;861136;23;932;-84
2022/08/12 02:54:23;;;;;;;;;;;28.40;36.50;;;;;;861253;23;794;-84
2022/08/12 02:54:46;;;;;;;;;;;28.40;36.70;;;;;;861373;23;876;-84
2022/08/12 02:55:08;;;;;;;;;;;;;;;;;;861206;23;885;-85
2022/08/12 02:55:32;;;;;;;;;;;28.50;36.80;;;;;;856739;23;1500;-84
2022/08/12 02:55:52;;;;;;;;;;;28.40;36.70;;;;;;856912;23;798;-84
2022/08/12 02:56:15;;;;;;;;;;;28.50;36.80;;;;;;856968;23;813;-84
2022/08/12 02:56:39;;;;;;;;;;;28.40;36.60;;;;;;856770;23;928;-84
2022/08/12 02:57:00;;;;;;;;;;;28.40;36.50;;;;;;856767;23;1080;-84
2022/08/12 02:57:21;;;;;;;;;;;28.40;36.60;;;;;;859121;23;688;-84
2022/08/12 02:57:43;;;;;;;;;;;28.50;36.60;;;;;;861012;23;805;-84
2022/08/12 02:58:08;;;;;;;;;;;28.40;36.50;;;;;;860913;23;906;-84
2022/08/12 02:58:32;;;;;;;;;;;28.40;36.60;;;;;;861067;23;809;-84
2022/08/12 02:58:53;;;;;;;;;;;28.40;36.60;;;;;;861156;23;842;-84
2022/08/12 02:59:15;;;;;;;;;;;28.40;36.40;;;;;;861258;23;770;-84
2022/08/12 02:59:38;;;;;;;;;;;28.40;36.50;;;;;;861234;23;785;-84
2022/08/12 03:00:01;;;;;;;;;;;28.40;36.30;;;;;;855096;23;1242;-84
2022/08/12 03:00:22;;;;;;;;;;;28.40;36.50;;;;;;856844;23;861;-84
2022/08/12 03:00:43;;;;;;;;;;;28.40;36.50;;;;;;856899;23;797;-84
2022/08/12 03:01:04;;;;;;;;;;;;;;;;;;856886;23;766;-84
2022/08/12 03:01:31;;;;;;;;;;;28.40;36.60;;;;;;856880;23;857;-84
2022/08/12 03:01:58;;;;;;;;;;;28.40;36.50;;;;;;859578;23;809;-84
2022/08/12 03:02:20;;;;;;;;;;;28.40;36.40;;;;;;861321;23;806;-85
2022/08/12 03:02:43;;;;;;;;;;;28.40;36.60;;;;;;856677;23;1203;-85
2022/08/12 03:03:05;;;;;;;;;;;28.40;36.40;;;;;;856972;23;757;-84
2022/08/12 03:03:29;;;;;;;;;;;28.40;36.60;;;;;;856849;23;770;-84
2022/08/12 03:03:51;;;;;;;;;;;28.40;36.60;;;;;;856884;23;769;-84
2022/08/12 03:04:15;;;;;;;;;;;28.40;36.50;;;;;;856762;23;925;-85
2022/08/12 03:04:39;;;;;;;;;;;28.40;36.50;;;;;;859891;23;925;-84
2022/08/12 03:05:01;;;;;;;;;;;28.40;36.50;;;;;;861271;23;837;-85
2022/08/12 03:05:23;;;;;;;;;;;28.40;36.30;;;;;;861286;23;766;-85
2022/08/12 03:05:48;;;;;;;;;;;28.40;36.50;;;;;;861300;23;825;-85
2022/08/12 03:06:17;;;;;;;;;;;28.40;36.40;;;;;;861257;23;774;-84
2022/08/12 03:06:38;;;;;;;;;;;;;;;;;;861184;23;793;-83
2022/08/12 03:07:09;;;;;;;;;;;28.40;36.30;;;;;;861317;23;766;-83
2022/08/12 03:07:34;;;;;;;;;;;28.40;36.30;;;;;;861175;23;843;-82
2022/08/12 03:07:55;;;;;;;;;;;28.40;36.30;;;;;;861171;23;927;-83
2022/08/12 03:08:18;;;;;;;;;;;28.40;36.20;;;;;;861229;23;889;-83
2022/08/12 03:08:42;;;;;;;;;;;28.40;36.30;;;;;;861226;23;837;-83
2022/08/12 03:09:04;;;;;;;;;;;28.30;36.20;;;;;;861223;23;778;-83
2022/08/12 03:09:24;;;;;;;;;;;28.40;36.40;;;;;;856751;23;1163;-82
2022/08/12 03:09:58;;;;;;;;;;;28.30;36.10;;;;;;852029;23;1897;-82
2022/08/12 03:10:23;;;;;;;;;;;28.40;36.30;;;;;;852810;23;896;-83
2022/08/12 03:10:44;;;;;;;;;;;28.30;36.10;;;;;;852692;23;838;-83
2022/08/12 03:11:24;;;;;;;;;;;28.30;36.10;;;;;;852720;23;979;-83
2022/08/12 03:12:05;;;;;;;;;;;28.30;36.20;;;;;;860904;23;849;-82
2022/08/12 03:12:28;;;;;;;;;;;28.40;36.30;;;;;;861389;23;817;-83
2022/08/12 03:12:52;;;;;;;;;;;28.30;36.10;;;;;;861251;23;793;-82
2022/08/12 03:13:14;;;;;;;;;;;28.30;36.10;;;;;;861204;23;794;-82
2022/08/12 03:13:38;;;;;;;;;;;28.40;36.20;;;;;;861329;23;1021;-83
2022/08/12 03:14:00;;;;;;;;;;;28.30;36.10;;;;;;861246;23;817;-82
2022/08/12 03:14:25;;;;;;;;;;;28.40;36.30;;;;;;861354;23;766;-82
2022/08/12 03:14:46;;;;;;;;;;;28.30;36.20;;;;;;861347;23;817;-82
2022/08/12 03:15:08;;;;;;;;;;;28.30;36.20;;;;;;861179;23;830;-83
2022/08/12 03:15:30;;;;;;;;;;;28.30;36.00;;;;;;861291;23;802;-83
2022/08/12 03:15:53;;;;;;;;;;;28.30;36.20;;;;;;861225;23;897;-83
2022/08/12 03:16:13;;;;;;;;;;;;;;;;;;861325;23;1000;-82
2022/08/12 03:16:34;;;;;;;;;;;28.30;36.00;;;;;;856113;23;1145;-83
2022/08/12 03:17:13;;;;;;;;;;;28.40;36.30;;;;;;856808;23;817;-82
2022/08/12 03:17:54;;;;;;;;;;;28.30;36.10;;;;;;852676;23;738;-81
2022/08/12 03:18:21;;;;;;;;;;;28.30;36.10;;;;;;852449;23;1298;-83
2022/08/12 03:18:42;;;;;;;;;;;28.30;36.10;;;;;;857151;23;802;-83
2022/08/12 03:19:03;;;;;;;;;;;28.30;36.20;;;;;;857059;23;834;-83
2022/08/12 03:19:23;;;;;;;;;;;28.30;36.10;;;;;;859181;23;758;-85
2022/08/12 03:19:44;;;;;;;;;;;28.30;36.10;;;;;;861385;23;964;-85
2022/08/12 03:20:05;;;;;;;;;;;28.30;36.10;;;;;;857123;23;1357;-84
2022/08/12 03:20:26;;;;;;;;;;;28.30;36.20;;;;;;857144;23;769;-85
2022/08/12 03:20:46;;;;;;;;;;;28.30;36.20;;;;;;852886;23;1503;-84
2022/08/12 03:21:12;;;;;;;;;;;28.30;35.90;;;;;;852894;23;882;-85
2022/08/12 03:21:37;;;;;;;;;;;28.30;36.10;;;;;;853013;23;840;-84
2022/08/12 03:22:11;;;;;;;;;;;;;;;;;;855589;23;805;-85
2022/08/12 03:22:32;;;;;;;;;;;28.30;36.10;;;;;;858272;23;913;-84
2022/08/12 03:22:53;;;;;;;;;;;28.30;36.00;;;;;;861539;23;770;-84
2022/08/12 03:23:14;;;;;;;;;;;;;;;;;;861519;23;881;-84
2022/08/12 03:23:35;;;;;;;;;;;28.30;36.00;;;;;;861525;23;886;-84
2022/08/12 03:23:58;;;;;;;;;;;28.30;36.10;;;;;;861520;23;865;-84
2022/08/12 03:24:20;;;;;;;;;;;28.30;36.20;;;;;;861511;23;945;-84
2022/08/12 03:24:42;;;;;;;;;;;28.30;36.20;;;;;;861496;23;898;-84
2022/08/12 03:25:04;;;;;;;;;;;28.30;36.20;;;;;;861426;23;906;-85
2022/08/12 03:25:25;;;;;;;;;;;28.30;36.20;;;;;;861608;23;809;-85
2022/08/12 03:25:49;;;;;;;;;;;28.30;36.10;;;;;;857015;23;969;-84
2022/08/12 03:26:10;;;;;;;;;;;28.30;36.10;;;;;;853020;23;806;-85
2022/08/12 03:26:33;;;;;;;;;;;28.30;36.10;;;;;;852985;23;794;-84
2022/08/12 03:26:55;;;;;;;;;;;28.30;36.20;;;;;;852936;23;826;-85
2022/08/12 03:27:16;;;;;;;;;;;28.30;36.20;;;;;;853050;23;790;-84
2022/08/12 03:27:38;;;;;;;;;;;28.30;36.10;;;;;;855203;23;810;-84
2022/08/12 03:27:58;;;;;;;;;;;28.30;36.00;;;;;;858830;23;786;-85
2022/08/12 03:29:01;;;;;;;;;;;28.30;36.00;;;;;;861578;23;593;-85
2022/08/12 03:29:28;;;;;;;;;;;28.30;35.80;;;;;;861416;23;866;-85
2022/08/12 03:29:50;;;;;;;;;;;28.30;36.20;;;;;;861446;23;1936;-85
2022/08/12 03:30:11;;;;;;;;;;;28.30;36.40;;;;;;861411;23;924;-84
2022/08/12 03:30:32;;;;;;;;;;;28.30;36.50;;;;;;856987;23;1365;-85